createdAt,value
2018-04-08T00:00:16.704Z,46.43
2018-04-08T00:00:42.851Z,46.62
2018-04-08T00:01:08.987Z,46.34
2018-04-08T00:01:35.128Z,47.01
2018-04-08T00:02:01.261Z,47.1
2018-04-08T00:02:27.408Z,47.1
2018-04-08T00:02:53.559Z,47.01
2018-04-08T00:03:19.700Z,46.91
2018-04-08T00:03:45.834Z,47.1
2018-04-08T00:04:11.980Z,46.81
2018-04-08T00:04:38.113Z,46.81
2018-04-08T00:05:04.254Z,47.3
2018-04-08T00:05:30.396Z,47.2
2018-04-08T00:05:56.532Z,47.68
2018-04-08T00:06:22.678Z,47.39
2018-04-08T00:06:48.816Z,47.68
2018-04-08T00:07:14.960Z,47.68
2018-04-08T00:07:41.100Z,47.58
2018-04-08T00:08:07.248Z,47.68
2018-04-08T00:08:33.420Z,47.68
2018-04-08T00:08:59.554Z,47.49
2018-04-08T00:09:25.719Z,47.3
2018-04-08T00:09:51.859Z,47.49
2018-04-08T00:10:17.994Z,47.3
2018-04-08T00:10:44.134Z,47.39
2018-04-08T00:11:10.297Z,46.91
2018-04-08T00:11:36.439Z,47.01
2018-04-08T00:12:02.576Z,46.72
2018-04-08T00:12:28.719Z,47.2
2018-04-08T00:12:54.855Z,47.39
2018-04-08T00:13:20.999Z,47.2
2018-04-08T00:13:47.144Z,47.49
2018-04-08T00:14:13.279Z,47.49
2018-04-08T00:14:39.419Z,47.49
2018-04-08T00:15:05.610Z,47.68
2018-04-08T00:15:31.750Z,48.16
2018-04-08T00:15:57.888Z,48.44
2018-04-08T00:16:24.032Z,48.35
2018-04-08T00:16:50.164Z,48.44
2018-04-08T00:17:16.321Z,47.87
2018-04-08T00:17:42.465Z,48.16
2018-04-08T00:18:08.605Z,48.35
2018-04-08T00:18:34.744Z,48.54
2018-04-08T00:19:00.884Z,48.16
2018-04-08T00:19:27.026Z,48.35
2018-04-08T00:19:53.159Z,48.35
2018-04-08T00:20:19.304Z,48.07
2018-04-08T00:20:45.447Z,48.35
2018-04-08T00:21:11.617Z,48.07
2018-04-08T00:21:37.760Z,47.68
2018-04-08T00:22:03.896Z,47.58
2018-04-08T00:22:30.039Z,47.68
2018-04-08T00:22:56.177Z,48.35
2018-04-08T00:23:22.340Z,48.35
2018-04-08T00:23:48.478Z,47.87
2018-04-08T00:24:14.614Z,47.68
2018-04-08T00:24:40.779Z,47.49
2018-04-08T00:25:06.919Z,47.58
2018-04-08T00:25:33.088Z,47.39
2018-04-08T00:25:59.230Z,47.3
2018-04-08T00:26:25.369Z,47.39
2018-04-08T00:26:51.507Z,47.49
2018-04-08T00:27:17.655Z,47.58
2018-04-08T00:27:43.794Z,47.39
2018-04-08T00:28:09.931Z,47.58
2018-04-08T00:28:36.073Z,47.58
2018-04-08T00:29:02.216Z,47.87
2018-04-08T00:29:28.350Z,47.97
2018-04-08T00:29:54.510Z,48.35
2018-04-08T00:30:20.677Z,48.44
2018-04-08T00:30:46.822Z,48.44
2018-04-08T00:31:12.965Z,48.35
2018-04-08T00:31:39.126Z,48.35
2018-04-08T00:32:05.272Z,48.16
2018-04-08T00:32:31.406Z,48.83
2018-04-08T00:32:57.546Z,48.54
2018-04-08T00:33:23.686Z,48.74
2018-04-08T00:33:49.827Z,48.64
2018-04-08T00:34:15.960Z,48.74
2018-04-08T00:34:42.097Z,48.74
2018-04-08T00:35:08.242Z,48.54
2018-04-08T00:35:34.383Z,48.25
2018-04-08T00:36:00.542Z,48.64
2018-04-08T00:36:26.681Z,48.64
2018-04-08T00:36:52.820Z,48.64
2018-04-08T00:37:18.956Z,48.54
2018-04-08T00:37:45.095Z,48.74
2018-04-08T00:38:11.237Z,48.64
2018-04-08T00:38:37.372Z,48.64
2018-04-08T00:39:03.505Z,48.54
2018-04-08T00:39:29.651Z,48.54
2018-04-08T00:39:55.781Z,48.74
2018-04-08T00:40:21.923Z,48.64
2018-04-08T00:40:48.059Z,48.25
2018-04-08T00:41:14.204Z,48.35
2018-04-08T00:41:40.341Z,48.07
2018-04-08T00:42:06.483Z,48.54
2018-04-08T00:42:32.617Z,48.25
2018-04-08T00:42:58.761Z,48.74
2018-04-08T00:43:24.910Z,48.35
2018-04-08T00:43:51.063Z,48.44
2018-04-08T00:44:17.205Z,48.16
2018-04-08T00:44:43.347Z,48.35
2018-04-08T00:45:09.489Z,48.33
2018-04-08T00:45:35.625Z,48.64
2018-04-08T00:46:01.770Z,48.52
2018-04-08T00:46:27.916Z,48.74
2018-04-08T00:46:54.049Z,48.74
2018-04-08T00:47:20.195Z,48.54
2018-04-08T00:47:46.359Z,48.83
2018-04-08T00:48:12.500Z,48.25
2018-04-08T00:48:38.645Z,48.16
2018-04-08T00:49:04.785Z,48.35
2018-04-08T00:49:30.926Z,48.16
2018-04-08T00:49:57.065Z,48.44
2018-04-08T00:50:23.200Z,48.74
2018-04-08T00:50:49.341Z,48.74
2018-04-08T00:51:15.479Z,48.64
2018-04-08T00:51:41.623Z,48.74
2018-04-08T00:52:07.760Z,48.74
2018-04-08T00:52:33.902Z,48.16
2018-04-08T00:53:00.044Z,48.16
2018-04-08T00:53:26.181Z,48.13
2018-04-08T00:53:52.314Z,48.16
2018-04-08T00:54:18.454Z,47.97
2018-04-08T00:54:44.591Z,48.35
2018-04-08T00:55:10.735Z,48.25
2018-04-08T00:55:36.867Z,48.64
2018-04-08T00:56:03.013Z,48.61
2018-04-08T00:56:29.149Z,48.54
2018-04-08T00:56:55.292Z,48.74
2018-04-08T00:57:21.424Z,48.33
2018-04-08T00:57:47.566Z,48.23
2018-04-08T00:58:13.728Z,48.04
2018-04-08T00:58:39.868Z,48.44
2018-04-08T00:59:06.008Z,48.13
2018-04-08T00:59:32.146Z,48.61
2018-04-08T00:59:58.308Z,48.9
2018-04-08T01:00:24.467Z,48.43
2018-04-08T01:00:50.609Z,48.52
2018-04-08T01:01:16.748Z,48.71
2018-04-08T01:01:42.887Z,48.52
2018-04-08T01:02:09.024Z,48.52
2018-04-08T01:02:35.163Z,48.71
2018-04-08T01:03:01.306Z,48.71
2018-04-08T01:03:27.445Z,48.52
2018-04-08T01:03:53.587Z,48.61
2018-04-08T01:04:19.746Z,48.8
2018-04-08T01:04:45.887Z,48.8
2018-04-08T01:05:12.025Z,48.52
2018-04-08T01:05:38.192Z,48.71
2018-04-08T01:06:04.326Z,48.71
2018-04-08T01:06:30.468Z,48.52
2018-04-08T01:06:56.610Z,48.8
2018-04-08T01:07:22.755Z,48.61
2018-04-08T01:07:48.887Z,48.71
2018-04-08T01:08:15.034Z,48.52
2018-04-08T01:08:41.174Z,48.52
2018-04-08T01:09:07.310Z,48.71
2018-04-08T01:09:33.450Z,49
2018-04-08T01:09:59.588Z,49
2018-04-08T01:10:25.730Z,49
2018-04-08T01:10:51.871Z,49.29
2018-04-08T01:11:18.009Z,49.38
2018-04-08T01:11:44.150Z,49.1
2018-04-08T01:12:10.298Z,49.29
2018-04-08T01:12:36.462Z,49.19
2018-04-08T01:13:02.651Z,49.57
2018-04-08T01:13:28.741Z,49.29
2018-04-08T01:13:54.911Z,49.38
2018-04-08T01:14:21.049Z,49.19
2018-04-08T01:14:47.217Z,49.1
2018-04-08T01:15:13.351Z,49.38
2018-04-08T01:15:39.496Z,49.29
2018-04-08T01:16:05.628Z,49.29
2018-04-08T01:16:31.771Z,49.67
2018-04-08T01:16:57.913Z,49.96
2018-04-08T01:17:24.080Z,50.05
2018-04-08T01:17:50.215Z,49.86
2018-04-08T01:18:16.345Z,49.76
2018-04-08T01:18:42.492Z,49.96
2018-04-08T01:19:08.649Z,49.76
2018-04-08T01:19:34.809Z,49.57
2018-04-08T01:20:00.948Z,49.29
2018-04-08T01:20:27.084Z,49.57
2018-04-08T01:20:53.222Z,49.76
2018-04-08T01:21:19.370Z,50.24
2018-04-08T01:21:45.501Z,49.86
2018-04-08T01:22:11.666Z,49.86
2018-04-08T01:22:37.799Z,50.05
2018-04-08T01:23:03.946Z,49.86
2018-04-08T01:23:30.085Z,49.96
2018-04-08T01:23:56.219Z,49.96
2018-04-08T01:24:22.353Z,49.96
2018-04-08T01:24:48.499Z,50.15
2018-04-08T01:25:14.640Z,49.76
2018-04-08T01:25:40.776Z,49.86
2018-04-08T01:26:06.912Z,49.96
2018-04-08T01:26:33.053Z,49.19
2018-04-08T01:26:59.190Z,49.29
2018-04-08T01:27:25.331Z,49.38
2018-04-08T01:27:51.466Z,49.67
2018-04-08T01:28:17.608Z,49.65
2018-04-08T01:28:43.743Z,49.96
2018-04-08T01:29:09.891Z,49.96
2018-04-08T01:29:36.025Z,49.86
2018-04-08T01:30:02.190Z,49.96
2018-04-08T01:30:28.333Z,49.96
2018-04-08T01:30:54.472Z,49.96
2018-04-08T01:31:20.607Z,50.12
2018-04-08T01:31:46.752Z,49.76
2018-04-08T01:32:12.900Z,50.12
2018-04-08T01:32:39.037Z,50.05
2018-04-08T01:33:05.203Z,50.6
2018-04-08T01:33:31.344Z,50.32
2018-04-08T01:33:57.480Z,50.82
2018-04-08T01:34:23.621Z,50.92
2018-04-08T01:34:49.793Z,50.34
2018-04-08T01:35:15.932Z,50.43
2018-04-08T01:35:42.066Z,50.7
2018-04-08T01:36:08.204Z,50.53
2018-04-08T01:36:34.348Z,50.41
2018-04-08T01:37:00.505Z,50.7
2018-04-08T01:37:26.647Z,50.89
2018-04-08T01:37:52.787Z,50.73
2018-04-08T01:38:18.926Z,50.92
2018-04-08T01:38:45.070Z,50.63
2018-04-08T01:39:11.204Z,50.63
2018-04-08T01:39:37.346Z,50.34
2018-04-08T01:40:03.482Z,50.53
2018-04-08T01:40:29.627Z,50.6
2018-04-08T01:40:55.758Z,50.6
2018-04-08T01:41:21.900Z,50.15
2018-04-08T01:41:48.057Z,50.63
2018-04-08T01:42:14.204Z,50.32
2018-04-08T01:42:40.336Z,50.43
2018-04-08T01:43:06.476Z,50.41
2018-04-08T01:43:32.609Z,50.32
2018-04-08T01:43:58.752Z,50.32
2018-04-08T01:44:24.894Z,50.51
2018-04-08T01:44:51.029Z,50.32
2018-04-08T01:45:17.162Z,50.51
2018-04-08T01:45:43.309Z,50.12
2018-04-08T01:46:09.473Z,50.12
2018-04-08T01:46:35.605Z,50.7
2018-04-08T01:47:01.747Z,51.08
2018-04-08T01:47:27.880Z,51.18
2018-04-08T01:47:54.026Z,50.79
2018-04-08T01:48:20.162Z,50.51
2018-04-08T01:48:46.299Z,50.51
2018-04-08T01:49:12.496Z,50.7
2018-04-08T01:49:38.634Z,50.77
2018-04-08T01:50:04.773Z,50.79
2018-04-08T01:50:30.914Z,50.79
2018-04-08T01:50:57.051Z,50.89
2018-04-08T01:51:23.219Z,50.79
2018-04-08T01:51:49.351Z,51.37
2018-04-08T01:52:15.486Z,51.28
2018-04-08T01:52:41.630Z,51.18
2018-04-08T01:53:07.761Z,51.46
2018-04-08T01:53:33.904Z,51.08
2018-04-08T01:54:00.045Z,50.99
2018-04-08T01:54:26.187Z,50.51
2018-04-08T01:54:52.323Z,50.29
2018-04-08T01:55:18.466Z,50.48
2018-04-08T01:55:44.595Z,50.79
2018-04-08T01:56:10.734Z,51.15
2018-04-08T01:56:36.878Z,50.96
2018-04-08T01:57:03.018Z,50.96
2018-04-08T01:57:29.163Z,51.15
2018-04-08T01:57:55.298Z,50.87
2018-04-08T01:58:21.438Z,51.06
2018-04-08T01:58:47.575Z,51.15
2018-04-08T01:59:13.741Z,50.96
2018-04-08T01:59:39.883Z,50.96
2018-04-08T02:00:06.021Z,51.08
2018-04-08T02:00:32.165Z,50.96
2018-04-08T02:00:58.298Z,50.87
2018-04-08T02:01:24.445Z,50.96
2018-04-08T02:01:50.585Z,51.15
2018-04-08T02:02:16.724Z,50.87
2018-04-08T02:02:42.858Z,50.96
2018-04-08T02:03:09.024Z,51.34
2018-04-08T02:03:35.160Z,51.44
2018-04-08T02:04:01.312Z,50.99
2018-04-08T02:04:27.470Z,50.87
2018-04-08T02:04:53.636Z,50.96
2018-04-08T02:05:19.782Z,50.96
2018-04-08T02:05:45.915Z,51.34
2018-04-08T02:06:12.078Z,51.15
2018-04-08T02:06:38.247Z,50.96
2018-04-08T02:07:04.391Z,51.25
2018-04-08T02:07:30.544Z,50.96
2018-04-08T02:07:56.683Z,51.15
2018-04-08T02:08:22.820Z,51.25
2018-04-08T02:08:48.964Z,50.89
2018-04-08T02:09:15.102Z,50.87
2018-04-08T02:09:41.241Z,50.96
2018-04-08T02:10:07.381Z,50.38
2018-04-08T02:10:33.525Z,51.15
2018-04-08T02:10:59.657Z,50.96
2018-04-08T02:11:25.796Z,50.87
2018-04-08T02:11:51.936Z,50.67
2018-04-08T02:12:18.069Z,50.87
2018-04-08T02:12:44.211Z,50.96
2018-04-08T02:13:10.349Z,51.15
2018-04-08T02:13:36.491Z,51.06
2018-04-08T02:14:02.628Z,50.67
2018-04-08T02:14:28.771Z,50.87
2018-04-08T02:14:54.912Z,50.77
2018-04-08T02:15:21.054Z,50.67
2018-04-08T02:15:47.192Z,50.87
2018-04-08T02:16:13.325Z,51.06
2018-04-08T02:16:39.465Z,50.87
2018-04-08T02:17:05.601Z,51.15
2018-04-08T02:17:31.741Z,51.06
2018-04-08T02:17:57.880Z,50.87
2018-04-08T02:18:24.040Z,50.67
2018-04-08T02:18:50.185Z,50.67
2018-04-08T02:19:16.322Z,50.29
2018-04-08T02:19:42.465Z,50.29
2018-04-08T02:20:08.604Z,50.67
2018-04-08T02:20:34.741Z,50.48
2018-04-08T02:21:00.902Z,50.58
2018-04-08T02:21:27.045Z,50.87
2018-04-08T02:21:53.185Z,50.77
2018-04-08T02:22:19.324Z,50.67
2018-04-08T02:22:45.458Z,51.06
2018-04-08T02:23:11.631Z,50.77
2018-04-08T02:23:37.762Z,51.06
2018-04-08T02:24:03.909Z,51.06
2018-04-08T02:24:30.050Z,50.77
2018-04-08T02:24:56.188Z,51.06
2018-04-08T02:25:22.322Z,51.25
2018-04-08T02:25:48.465Z,51.15
2018-04-08T02:26:14.601Z,50.96
2018-04-08T02:26:40.743Z,50.29
2018-04-08T02:27:06.897Z,50.87
2018-04-08T02:27:33.046Z,50.67
2018-04-08T02:27:59.204Z,50.67
2018-04-08T02:28:25.344Z,50.67
2018-04-08T02:28:51.487Z,50.58
2018-04-08T02:29:17.625Z,50.87
2018-04-08T02:29:43.769Z,50.77
2018-04-08T02:30:09.906Z,50.67
2018-04-08T02:30:36.045Z,51.15
2018-04-08T02:31:02.183Z,51.25
2018-04-08T02:31:28.328Z,50.77
2018-04-08T02:31:54.462Z,51.25
2018-04-08T02:32:20.619Z,50.87
2018-04-08T02:32:46.763Z,51.25
2018-04-08T02:33:12.904Z,50.96
2018-04-08T02:33:39.043Z,51.44
2018-04-08T02:34:05.183Z,50.96
2018-04-08T02:34:31.319Z,50.77
2018-04-08T02:34:57.499Z,50.67
2018-04-08T02:35:23.667Z,51.06
2018-04-08T02:35:49.805Z,51.44
2018-04-08T02:36:15.963Z,51.54
2018-04-08T02:36:42.128Z,51.06
2018-04-08T02:37:08.312Z,50.96
2018-04-08T02:37:34.450Z,50.87
2018-04-08T02:38:00.595Z,50.96
2018-04-08T02:38:26.732Z,51.44
2018-04-08T02:38:52.873Z,51.44
2018-04-08T02:39:19.006Z,51.25
2018-04-08T02:39:45.171Z,51.34
2018-04-08T02:40:11.305Z,51.15
2018-04-08T02:40:37.446Z,50.87
2018-04-08T02:41:03.588Z,51.25
2018-04-08T02:41:29.725Z,50.87
2018-04-08T02:41:55.869Z,50.87
2018-04-08T02:42:22.006Z,50.77
2018-04-08T02:42:48.149Z,50.77
2018-04-08T02:43:14.314Z,51.34
2018-04-08T02:43:40.455Z,51.15
2018-04-08T02:44:06.619Z,51.06
2018-04-08T02:44:32.754Z,51.25
2018-04-08T02:44:58.903Z,50.87
2018-04-08T02:45:25.067Z,50.87
2018-04-08T02:45:51.209Z,51.44
2018-04-08T02:46:17.358Z,51.15
2018-04-08T02:46:43.505Z,51.06
2018-04-08T02:47:09.678Z,51.25
2018-04-08T02:47:35.821Z,51.15
2018-04-08T02:48:01.949Z,51.25
2018-04-08T02:48:28.087Z,51.25
2018-04-08T02:48:54.234Z,51.34
2018-04-08T02:49:20.387Z,51.15
2018-04-08T02:49:46.527Z,51.15
2018-04-08T02:50:12.690Z,52.2
2018-04-08T02:50:38.831Z,51.82
2018-04-08T02:51:04.965Z,51.92
2018-04-08T02:51:31.130Z,51.92
2018-04-08T02:51:57.292Z,51.82
2018-04-08T02:52:23.444Z,51.92
2018-04-08T02:52:49.586Z,52.2
2018-04-08T02:53:15.724Z,51.92
2018-04-08T02:53:41.858Z,52.69
2018-04-08T02:54:08.026Z,51.82
2018-04-08T02:54:34.167Z,52.01
2018-04-08T02:55:00.302Z,51.82
2018-04-08T02:55:26.445Z,52.01
2018-04-08T02:55:52.583Z,51.92
2018-04-08T02:56:18.745Z,51.82
2018-04-08T02:56:44.878Z,52.5
2018-04-08T02:57:11.023Z,51.82
2018-04-08T02:57:37.156Z,51.54
2018-04-08T02:58:03.321Z,51.15
2018-04-08T02:58:29.459Z,51.06
2018-04-08T02:58:55.595Z,51.54
2018-04-08T02:59:21.736Z,52.3
2018-04-08T02:59:47.878Z,51.82
2018-04-08T03:00:14.018Z,52.01
2018-04-08T03:00:40.172Z,51.82
2018-04-08T03:01:06.298Z,52.69
2018-04-08T03:01:32.447Z,51.63
2018-04-08T03:01:58.577Z,52.69
2018-04-08T03:02:24.719Z,52.11
2018-04-08T03:02:50.851Z,52.11
2018-04-08T03:03:16.993Z,52.2
2018-04-08T03:03:43.136Z,51.92
2018-04-08T03:04:09.314Z,52.11
2018-04-08T03:04:35.475Z,52.3
2018-04-08T03:05:01.611Z,52.5
2018-04-08T03:05:27.750Z,52.2
2018-04-08T03:05:53.884Z,52.69
2018-04-08T03:06:20.024Z,52.59
2018-04-08T03:06:46.164Z,52.18
2018-04-08T03:07:12.307Z,52.56
2018-04-08T03:07:38.444Z,51.99
2018-04-08T03:08:04.584Z,52.18
2018-04-08T03:08:30.722Z,52.47
2018-04-08T03:08:56.862Z,52.66
2018-04-08T03:09:22.997Z,52.56
2018-04-08T03:09:49.152Z,52.37
2018-04-08T03:10:15.295Z,52.95
2018-04-08T03:10:41.436Z,52.75
2018-04-08T03:11:07.571Z,52.56
2018-04-08T03:11:33.736Z,52.66
2018-04-08T03:11:59.872Z,52.37
2018-04-08T03:12:26.008Z,52.37
2018-04-08T03:12:52.149Z,52.56
2018-04-08T03:13:18.299Z,52.47
2018-04-08T03:13:44.437Z,52.85
2018-04-08T03:14:10.569Z,52.28
2018-04-08T03:14:36.707Z,52.66
2018-04-08T03:15:02.875Z,52.75
2018-04-08T03:15:29.010Z,52.56
2018-04-08T03:15:55.143Z,52.56
2018-04-08T03:16:21.289Z,52.56
2018-04-08T03:16:47.428Z,52.47
2018-04-08T03:17:13.565Z,52.56
2018-04-08T03:17:39.700Z,52.28
2018-04-08T03:18:05.842Z,51.89
2018-04-08T03:18:31.982Z,52.09
2018-04-08T03:18:58.119Z,52.28
2018-04-08T03:19:24.264Z,52.66
2018-04-08T03:19:50.398Z,52.75
2018-04-08T03:20:16.539Z,52.28
2018-04-08T03:20:42.680Z,52.56
2018-04-08T03:21:08.819Z,52.47
2018-04-08T03:21:34.962Z,52.37
2018-04-08T03:22:01.111Z,52.56
2018-04-08T03:22:27.244Z,52.56
2018-04-08T03:22:53.384Z,52.37
2018-04-08T03:23:19.522Z,52.66
2018-04-08T03:23:45.662Z,52.37
2018-04-08T03:24:11.804Z,52.66
2018-04-08T03:24:37.947Z,52.56
2018-04-08T03:25:04.078Z,52.34
2018-04-08T03:25:30.224Z,52.54
2018-04-08T03:25:56.378Z,52.73
2018-04-08T03:26:22.523Z,52.63
2018-04-08T03:26:48.655Z,52.56
2018-04-08T03:27:14.825Z,52.66
2018-04-08T03:27:40.966Z,52.95
2018-04-08T03:28:07.128Z,52.56
2018-04-08T03:28:33.264Z,52.66
2018-04-08T03:28:59.407Z,52.75
2018-04-08T03:29:25.555Z,53.23
2018-04-08T03:29:51.712Z,53.52
2018-04-08T03:30:17.875Z,53.23
2018-04-08T03:30:44.013Z,52.95
2018-04-08T03:31:10.149Z,53.14
2018-04-08T03:31:36.281Z,53.71
2018-04-08T03:32:02.425Z,53.91
2018-04-08T03:32:28.594Z,55.24
2018-04-08T03:32:54.728Z,54.57
2018-04-08T03:33:20.893Z,53.91
2018-04-08T03:33:47.058Z,53.33
2018-04-08T03:34:13.189Z,53.52
2018-04-08T03:34:39.333Z,53.04
2018-04-08T03:35:05.469Z,52.66
2018-04-08T03:35:31.638Z,52.47
2018-04-08T03:35:57.782Z,51.99
2018-04-08T03:36:23.916Z,52.09
2018-04-08T03:36:50.078Z,52.75
2018-04-08T03:37:16.245Z,53.42
2018-04-08T03:37:42.381Z,53.14
2018-04-08T03:38:08.551Z,53.33
2018-04-08T03:38:34.750Z,53.33
2018-04-08T03:39:00.836Z,52.75
2018-04-08T03:39:26.994Z,52.66
2018-04-08T03:39:53.131Z,53.62
2018-04-08T03:40:19.267Z,54.48
2018-04-08T03:40:45.412Z,53.52
2018-04-08T03:41:11.550Z,52.66
2018-04-08T03:41:37.685Z,52.37
2018-04-08T03:42:03.874Z,52.28
2018-04-08T03:42:30.009Z,51.79
2018-04-08T03:42:56.147Z,51.79
2018-04-08T03:43:22.291Z,52.47
2018-04-08T03:43:48.424Z,52.95
2018-04-08T03:44:14.567Z,53.04
2018-04-08T03:44:40.706Z,53.81
2018-04-08T03:45:06.847Z,53.42
2018-04-08T03:45:32.987Z,52.56
2018-04-08T03:45:59.125Z,52.85
2018-04-08T03:46:25.259Z,52.47
2018-04-08T03:46:51.401Z,52.95
2018-04-08T03:47:17.542Z,53.33
2018-04-08T03:47:43.681Z,52.75
2018-04-08T03:48:09.848Z,52.56
2018-04-08T03:48:36.010Z,51.99
2018-04-08T03:49:02.151Z,51.89
2018-04-08T03:49:28.284Z,51.89
2018-04-08T03:49:54.420Z,51.99
2018-04-08T03:50:20.562Z,52.09
2018-04-08T03:50:46.701Z,51.89
2018-04-08T03:51:12.837Z,51.79
2018-04-08T03:51:38.971Z,51.87
2018-04-08T03:52:05.110Z,52.44
2018-04-08T03:52:31.251Z,52.34
2018-04-08T03:52:57.390Z,52.73
2018-04-08T03:53:23.525Z,52.73
2018-04-08T03:53:49.686Z,51.87
2018-04-08T03:54:15.823Z,52.15
2018-04-08T03:54:41.957Z,52.25
2018-04-08T03:55:08.095Z,52.34
2018-04-08T03:55:34.260Z,53.59
2018-04-08T03:56:00.397Z,53.59
2018-04-08T03:56:26.540Z,53.49
2018-04-08T03:56:52.673Z,52.25
2018-04-08T03:57:18.817Z,52.06
2018-04-08T03:57:44.975Z,51.87
2018-04-08T03:58:11.124Z,52.15
2018-04-08T03:58:37.267Z,51.68
2018-04-08T03:59:03.404Z,52.06
2018-04-08T03:59:29.541Z,51.97
2018-04-08T03:59:55.675Z,51.97
2018-04-08T04:00:21.817Z,52.15
2018-04-08T04:00:47.950Z,52.73
2018-04-08T04:01:14.115Z,52.54
2018-04-08T04:01:40.257Z,52.63
2018-04-08T04:02:06.393Z,52.73
2018-04-08T04:02:32.528Z,52.63
2018-04-08T04:02:58.668Z,52.32
2018-04-08T04:03:24.803Z,53.4
2018-04-08T04:03:50.948Z,53.49
2018-04-08T04:04:17.087Z,53.18
2018-04-08T04:04:43.228Z,52.92
2018-04-08T04:05:09.360Z,53.02
2018-04-08T04:05:35.551Z,52.89
2018-04-08T04:06:01.683Z,53.47
2018-04-08T04:06:27.828Z,53.4
2018-04-08T04:06:53.964Z,53.47
2018-04-08T04:07:20.100Z,53.28
2018-04-08T04:07:46.243Z,53.28
2018-04-08T04:08:12.404Z,53.3
2018-04-08T04:08:38.544Z,53.47
2018-04-08T04:09:04.678Z,52.7
2018-04-08T04:09:30.820Z,53.11
2018-04-08T04:09:56.959Z,53.49
2018-04-08T04:10:23.090Z,53.28
2018-04-08T04:10:49.254Z,53.49
2018-04-08T04:11:15.391Z,53.28
2018-04-08T04:11:41.531Z,53.4
2018-04-08T04:12:07.671Z,53.59
2018-04-08T04:12:33.814Z,53.2
2018-04-08T04:12:59.951Z,53.02
2018-04-08T04:13:26.092Z,53.2
2018-04-08T04:13:52.228Z,53.2
2018-04-08T04:14:18.369Z,52.8
2018-04-08T04:14:44.503Z,53.11
2018-04-08T04:15:10.643Z,52.89
2018-04-08T04:15:36.780Z,53.3
2018-04-08T04:16:02.920Z,53.11
2018-04-08T04:16:29.057Z,53.47
2018-04-08T04:16:55.199Z,53.47
2018-04-08T04:17:21.330Z,53.85
2018-04-08T04:17:47.470Z,54.04
2018-04-08T04:18:13.615Z,54.14
2018-04-08T04:18:39.747Z,53.75
2018-04-08T04:19:05.889Z,53.94
2018-04-08T04:19:32.022Z,53.75
2018-04-08T04:19:58.159Z,54.14
2018-04-08T04:20:24.297Z,54.23
2018-04-08T04:20:50.436Z,54.33
2018-04-08T04:21:16.577Z,53.66
2018-04-08T04:21:42.718Z,54.14
2018-04-08T04:22:08.854Z,54.04
2018-04-08T04:22:35.019Z,53.66
2018-04-08T04:23:01.153Z,53.66
2018-04-08T04:23:27.322Z,53.75
2018-04-08T04:23:53.500Z,53.75
2018-04-08T04:24:19.605Z,53.37
2018-04-08T04:24:45.740Z,54.33
2018-04-08T04:25:11.874Z,53.75
2018-04-08T04:25:38.019Z,53.94
2018-04-08T04:26:04.145Z,53.94
2018-04-08T04:26:30.287Z,53.66
2018-04-08T04:26:56.429Z,53.85
2018-04-08T04:27:22.566Z,53.85
2018-04-08T04:27:48.706Z,54.14
2018-04-08T04:28:14.841Z,54.61
2018-04-08T04:28:40.984Z,54.43
2018-04-08T04:29:07.143Z,54.52
2018-04-08T04:29:33.305Z,54.23
2018-04-08T04:29:59.442Z,54.43
2018-04-08T04:30:25.583Z,54.43
2018-04-08T04:30:51.721Z,53.94
2018-04-08T04:31:17.857Z,54.61
2018-04-08T04:31:43.989Z,54.04
2018-04-08T04:32:10.130Z,53.47
2018-04-08T04:32:36.273Z,53.28
2018-04-08T04:33:02.452Z,53.56
2018-04-08T04:33:28.577Z,53.94
2018-04-08T04:33:54.718Z,53.69
2018-04-08T04:34:20.852Z,53.56
2018-04-08T04:34:46.999Z,53.56
2018-04-08T04:35:13.162Z,52.99
2018-04-08T04:35:39.303Z,52.99
2018-04-08T04:36:05.457Z,52.99
2018-04-08T04:36:31.596Z,53.18
2018-04-08T04:36:57.740Z,53.56
2018-04-08T04:37:23.881Z,53.28
2018-04-08T04:37:50.020Z,53.75
2018-04-08T04:38:16.157Z,53.66
2018-04-08T04:38:42.297Z,53.28
2018-04-08T04:39:08.440Z,53.47
2018-04-08T04:39:34.579Z,53.66
2018-04-08T04:40:00.727Z,54.36
2018-04-08T04:40:26.863Z,54.26
2018-04-08T04:40:53.016Z,54.16
2018-04-08T04:41:19.156Z,54.23
2018-04-08T04:41:45.294Z,54.14
2018-04-08T04:42:11.433Z,54.26
2018-04-08T04:42:37.576Z,54.26
2018-04-08T04:43:03.716Z,54.36
2018-04-08T04:43:29.844Z,53.88
2018-04-08T04:43:56.012Z,53.59
2018-04-08T04:44:22.143Z,53.4
2018-04-08T04:44:48.284Z,54.36
2018-04-08T04:45:14.417Z,54.26
2018-04-08T04:45:40.611Z,54.55
2018-04-08T04:46:06.742Z,53.97
2018-04-08T04:46:32.879Z,53.4
2018-04-08T04:46:59.022Z,53.49
2018-04-08T04:47:25.150Z,54.55
2018-04-08T04:47:51.294Z,54.64
2018-04-08T04:48:17.428Z,53.78
2018-04-08T04:48:43.570Z,53.11
2018-04-08T04:49:09.736Z,53.02
2018-04-08T04:49:35.899Z,53.2
2018-04-08T04:50:02.037Z,53.59
2018-04-08T04:50:28.178Z,52.92
2018-04-08T04:50:54.321Z,53.02
2018-04-08T04:51:20.468Z,53.11
2018-04-08T04:51:46.601Z,53.2
2018-04-08T04:52:12.736Z,53.11
2018-04-08T04:52:38.878Z,54.36
2018-04-08T04:53:05.014Z,54.36
2018-04-08T04:53:31.150Z,54.26
2018-04-08T04:53:57.292Z,54.55
2018-04-08T04:54:23.427Z,53.97
2018-04-08T04:54:49.569Z,54.26
2018-04-08T04:55:15.706Z,54.36
2018-04-08T04:55:41.849Z,54.36
2018-04-08T04:56:08.008Z,54.16
2018-04-08T04:56:34.147Z,54.55
2018-04-08T04:57:00.291Z,54.64
2018-04-08T04:57:26.422Z,54.36
2018-04-08T04:57:52.563Z,53.4
2018-04-08T04:58:18.702Z,53.11
2018-04-08T04:58:44.837Z,53.3
2018-04-08T04:59:10.981Z,53.3
2018-04-08T04:59:37.123Z,53.49
2018-04-08T05:00:03.255Z,52.63
2018-04-08T05:00:29.392Z,52.15
2018-04-08T05:00:55.539Z,52.63
2018-04-08T05:01:21.672Z,53.49
2018-04-08T05:01:47.812Z,53.49
2018-04-08T05:02:13.948Z,54.07
2018-04-08T05:02:40.090Z,53.2
2018-04-08T05:03:06.238Z,52.73
2018-04-08T05:03:32.371Z,52.63
2018-04-08T05:03:58.509Z,52.54
2018-04-08T05:04:24.644Z,52.63
2018-04-08T05:04:50.788Z,52.63
2018-04-08T05:05:16.918Z,52.63
2018-04-08T05:05:43.053Z,52.44
2018-04-08T05:06:09.194Z,53.11
2018-04-08T05:06:35.348Z,53.02
2018-04-08T05:07:01.496Z,52.92
2018-04-08T05:07:27.637Z,52.63
2018-04-08T05:07:53.770Z,52.63
2018-04-08T05:08:19.930Z,52.54
2018-04-08T05:08:46.066Z,51.97
2018-04-08T05:09:12.233Z,52.54
2018-04-08T05:09:38.377Z,53.11
2018-04-08T05:10:04.513Z,52.44
2018-04-08T05:10:30.651Z,51.77
2018-04-08T05:10:56.789Z,52.06
2018-04-08T05:11:22.935Z,52.06
2018-04-08T05:11:49.070Z,51.87
2018-04-08T05:12:15.210Z,51.97
2018-04-08T05:12:41.349Z,52.15
2018-04-08T05:13:07.497Z,52.54
2018-04-08T05:13:33.624Z,52.25
2018-04-08T05:13:59.768Z,52.47
2018-04-08T05:14:25.901Z,52.73
2018-04-08T05:14:52.038Z,52.09
2018-04-08T05:15:18.182Z,52.18
2018-04-08T05:15:44.319Z,52.15
2018-04-08T05:16:10.451Z,52.09
2018-04-08T05:16:36.615Z,52.83
2018-04-08T05:17:02.755Z,52.47
2018-04-08T05:17:28.887Z,52.75
2018-04-08T05:17:55.058Z,52.28
2018-04-08T05:18:21.221Z,52.37
2018-04-08T05:18:47.352Z,52.47
2018-04-08T05:19:13.497Z,51.89
2018-04-08T05:19:39.661Z,51.99
2018-04-08T05:20:05.830Z,51.99
2018-04-08T05:20:31.972Z,51.99
2018-04-08T05:20:58.108Z,52.18
2018-04-08T05:21:24.250Z,51.51
2018-04-08T05:21:50.391Z,51.32
2018-04-08T05:22:16.538Z,51.03
2018-04-08T05:22:42.695Z,50.93
2018-04-08T05:23:08.884Z,51.1
2018-04-08T05:23:34.970Z,50.81
2018-04-08T05:24:01.117Z,50.91
2018-04-08T05:24:27.246Z,51.29
2018-04-08T05:24:53.391Z,51.29
2018-04-08T05:25:19.526Z,51.01
2018-04-08T05:25:45.692Z,51.2
2018-04-08T05:26:11.828Z,50.91
2018-04-08T05:26:37.990Z,51.48
2018-04-08T05:27:04.124Z,52.06
2018-04-08T05:27:30.262Z,52.15
2018-04-08T05:27:56.408Z,51.68
2018-04-08T05:28:22.539Z,51.77
2018-04-08T05:28:48.674Z,52.06
2018-04-08T05:29:14.817Z,52.25
2018-04-08T05:29:40.956Z,52.06
2018-04-08T05:30:07.091Z,51.77
2018-04-08T05:30:33.227Z,51.87
2018-04-08T05:30:59.363Z,51.68
2018-04-08T05:31:25.510Z,51.77
2018-04-08T05:31:51.648Z,52.15
2018-04-08T05:32:17.788Z,51.68
2018-04-08T05:32:43.926Z,51.97
2018-04-08T05:33:10.066Z,51.48
2018-04-08T05:33:36.209Z,51.48
2018-04-08T05:34:02.370Z,51.48
2018-04-08T05:34:28.540Z,51.2
2018-04-08T05:34:54.683Z,51.2
2018-04-08T05:35:20.818Z,51.1
2018-04-08T05:35:46.950Z,51.03
2018-04-08T05:36:13.091Z,51.22
2018-04-08T05:36:39.230Z,51.22
2018-04-08T05:37:05.394Z,51.03
2018-04-08T05:37:31.522Z,50.74